Time;durP1;ratioP1;P1;durP2;ratioP2;P2;SDS_P1;SDS_P2;PMS_P1;PMS_P2;Temp;Humidity;BMP_temperature;BMP_pressure;BME280_temperature;BME280_humidity;BME280_pressure;Samples;Min_cycle;Max_cycle;Signal;HPM_P1;HPM_P2
2023/03/25 00:00:58;;;;;;;1.35;0.68;;;10.50;82.90;;;;;;5011061;28;20504;-80
2023/03/25 00:03:27;;;;;;;1.33;0.70;;;10.50;82.90;;;;;;5015283;28;20033;-79
2023/03/25 00:05:54;;;;;;;1.52;0.70;;;10.50;83.10;;;;;;4985104;28;20033;-81
2023/03/25 00:08:20;;;;;;;1.73;0.60;;;10.50;83.00;;;;;;5004462;28;20028;-80
2023/03/25 00:10:50;;;;;;;3.05;1.05;;;10.50;83.00;;;;;;5020860;28;20040;-79
2023/03/25 00:13:15;;;;;;;2.05;0.60;;;10.50;83.20;;;;;;5005516;28;20037;-80
2023/03/25 00:15:44;;;;;;;1.15;0.50;;;10.50;83.30;;;;;;5001180;28;20051;-79
2023/03/25 00:18:11;;;;;;;2.13;0.70;;;10.50;83.40;;;;;;4989944;28;20075;-79
2023/03/25 00:20:39;;;;;;;3.40;1.10;;;10.50;83.50;;;;;;4998418;28;20079;-80
2023/03/25 00:23:05;;;;;;;5.03;1.90;;;10.50;83.60;;;;;;5023885;28;20083;-79
2023/03/25 00:25:31;;;;;;;3.22;1.08;;;10.40;83.60;;;;;;4985684;28;20048;-80
2023/03/25 00:27:56;;;;;;;4.80;1.50;;;10.40;83.70;;;;;;5012408;28;20041;-79
2023/03/25 00:30:22;;;;;;;4.28;1.20;;;10.40;83.80;;;;;;5022484;28;20666;-79
2023/03/25 00:32:48;;;;;;;4.65;1.60;;;10.40;83.80;;;;;;5019845;28;20036;-79
2023/03/25 00:35:16;;;;;;;6.78;1.90;;;10.40;84.00;;;;;;5020191;28;20522;-79
2023/03/25 00:37:42;;;;;;;3.30;1.10;;;10.40;84.10;;;;;;5024565;28;20045;-79
2023/03/25 00:40:08;;;;;;;6.35;1.42;;;10.40;84.10;;;;;;4996361;28;20038;-79
2023/03/25 00:42:33;;;;;;;3.50;1.23;;;10.30;84.10;;;;;;4982506;28;20075;-80
2023/03/25 00:44:59;;;;;;;1.58;0.90;;;10.30;84.20;;;;;;5016277;28;20042;-79
2023/03/25 00:47:25;;;;;;;2.72;1.10;;;10.30;84.30;;;;;;4995093;28;20034;-79
2023/03/25 00:49:51;;;;;;;2.25;0.98;;;10.30;84.30;;;;;;4992937;28;20041;-79
2023/03/25 00:52:17;;;;;;;3.15;1.38;;;10.30;84.40;;;;;;5012469;28;20037;-79
2023/03/25 00:54:44;;;;;;;3.03;1.20;;;10.20;84.40;;;;;;4996634;28;20613;-79
2023/03/25 00:57:10;;;;;;;2.25;0.90;;;10.20;84.50;;;;;;5011646;28;20112;-79
2023/03/25 00:59:35;;;;;;;4.78;0.95;;;10.20;84.60;;;;;;5007536;28;20738;-78
2023/03/25 01:02:02;;;;;;;3.05;0.95;;;10.20;84.70;;;;;;5029258;28;21026;-80
2023/03/25 01:04:28;;;;;;;4.05;1.20;;;10.20;84.80;;;;;;5009213;28;20025;-79
2023/03/25 01:06:54;;;;;;;3.65;1.20;;;10.20;84.90;;;;;;4987232;28;20034;-79
2023/03/25 01:09:19;;;;;;;2.88;1.00;;;10.20;84.90;;;;;;5011956;28;20112;-78
2023/03/25 01:11:45;;;;;;;3.67;1.10;;;10.20;85.00;;;;;;4985899;28;20063;-78
2023/03/25 01:14:13;;;;;;;1.80;0.70;;;10.20;85.00;;;;;;4994197;28;20029;-79
2023/03/25 01:16:39;;;;;;;1.85;0.80;;;10.20;85.10;;;;;;4992678;28;20512;-79
2023/03/25 01:19:04;;;;;;;2.58;0.98;;;10.20;85.10;;;;;;5009093;28;20080;-79
2023/03/25 01:21:33;;;;;;;1.38;0.60;;;10.10;85.10;;;;;;4996605;28;20093;-80
2023/03/25 01:23:59;;;;;;;2.03;1.00;;;10.10;85.10;;;;;;5009476;28;20064;-80
2023/03/25 01:26:25;;;;;;;3.38;0.88;;;10.10;85.10;;;;;;5017825;28;20152;-81
2023/03/25 01:28:50;;;;;;;1.90;0.75;;;10.10;85.20;;;;;;4997498;28;20033;-80
2023/03/25 01:31:16;;;;;;;3.40;0.63;;;10.10;85.20;;;;;;4994475;28;20504;-79
2023/03/25 01:33:41;;;;;;;3.08;0.70;;;10.10;85.30;;;;;;5009154;28;20042;-80
2023/03/25 01:36:11;;;;;;;0.98;0.47;;;10.10;85.40;;;;;;4980954;28;20045;-80
2023/03/25 01:38:37;;;;;;;0.70;0.35;;;10.10;85.40;;;;;;5013943;28;20128;-79
2023/03/25 01:41:04;;;;;;;1.52;0.30;;;10.00;85.30;;;;;;5016308;28;20041;-79
2023/03/25 01:43:30;;;;;;;1.98;0.47;;;10.10;85.40;;;;;;5020809;28;20035;-78
2023/03/25 01:45:56;;;;;;;0.35;0.30;;;10.00;85.20;;;;;;5045629;28;20062;-79
2023/03/25 01:48:34;;;;;;;1.20;0.40;;;10.00;85.20;;;;;;4991407;28;20041;-80
2023/03/25 01:51:07;;;;;;;1.15;0.32;;;10.00;85.20;;;;;;5000290;28;20539;-80
2023/03/25 01:53:32;;;;;;;0.45;0.22;;;10.00;85.10;;;;;;4996432;28;20037;-79
2023/03/25 01:56:02;;;;;;;1.27;0.50;;;9.90;84.90;;;;;;5023806;28;20056;-79
2023/03/25 01:58:28;;;;;;;1.20;0.32;;;9.90;84.80;;;;;;5015911;28;20041;-79
2023/03/25 02:00:54;;;;;;;2.40;0.30;;;9.90;84.80;;;;;;5034333;28;20032;-80
2023/03/25 02:03:20;;;;;;;5.07;0.40;;;9.80;84.80;;;;;;5011640;28;20751;-80
2023/03/25 02:05:55;;;;;;;5.13;0.30;;;9.80;84.70;;;;;;5003453;28;20062;-79
2023/03/25 02:08:21;;;;;;;0.22;0.20;;;9.70;84.60;;;;;;5003710;28;20663;-79
2023/03/25 02:10:47;;;;;;;1.30;0.30;;;9.70;84.60;;;;;;5021086;28;20036;-79
2023/03/25 02:13:12;;;;;;;1.08;0.30;;;9.70;84.70;;;;;;5002543;28;20063;-79
2023/03/25 02:16:04;;;;;;;1.50;0.45;;;9.70;84.60;;;;;;5002468;28;20107;-79
2023/03/25 02:18:48;;;;;;;;;;;9.60;84.70;;;;;;5020904;28;20037;-80
2023/03/25 02:21:34;;;;;;;1.27;0.43;;;9.60;84.50;;;;;;5033030;28;19966;-78
2023/03/25 02:24:24;;;;;;;0.95;0.30;;;9.50;84.40;;;;;;5014534;28;20040;-79
2023/03/25 02:27:13;;;;;;;1.40;0.50;;;9.50;84.60;;;;;;5047624;28;20407;-80
2023/03/25 02:30:26;;;;;;;4.00;0.63;;;9.40;84.50;;;;;;5037377;28;20093;-78
2023/03/25 02:33:15;;;;;;;3.03;1.00;;;9.40;84.50;;;;;;4981843;28;20042;-78
2023/03/25 02:35:51;;;;;;;1.38;0.60;;;9.40;84.50;;;;;;4995340;28;20042;-78
2023/03/25 02:38:43;;;;;;;6.95;0.80;;;9.30;84.60;;;;;;4981704;28;20096;-80
2023/03/25 02:41:33;;;;;;;2.08;0.75;;;9.30;84.60;;;;;;4965349;28;20153;-79
2023/03/25 02:44:04;;;;;;;2.15;0.50;;;9.30;84.60;;;;;;4977073;28;20057;-80
2023/03/25 02:46:30;;;;;;;;;;;9.30;85.40;;;;;;4967394;28;20046;-79
2023/03/25 02:49:04;;;;;;;5.18;0.73;;;9.20;84.50;;;;;;4945366;28;20630;-80
2023/03/25 02:51:32;;;;;;;1.27;0.50;;;9.20;84.50;;;;;;4961257;28;20629;-80
2023/03/25 02:54:02;;;;;;;1.55;0.57;;;9.20;84.50;;;;;;4964906;28;20038;-79
2023/03/25 02:56:28;;;;;;;1.90;0.70;;;9.20;84.50;;;;;;4963657;28;20077;-78
2023/03/25 02:58:56;;;;;;;2.85;0.57;;;9.20;84.60;;;;;;4942270;28;20034;-79
2023/03/25 03:01:25;;;;;;;4.22;0.70;;;9.20;84.60;;;;;;4971666;28;20142;-79
2023/03/25 03:03:54;;;;;;;2.78;0.70;;;9.20;84.70;;;;;;4991993;28;20037;-79
2023/03/25 03:06:20;;;;;;;1.48;0.57;;;9.10;84.70;;;;;;5008331;28;20064;-80
2023/03/25 03:08:48;;;;;;;2.40;0.68;;;9.20;84.70;;;;;;5022326;28;20061;-79
2023/03/25 03:11:15;;;;;;;3.05;0.75;;;9.10;84.70;;;;;;5035242;28;20037;-79
2023/03/25 03:14:16;;;;;;;3.17;0.70;;;9.10;84.80;;;;;;5015286;28;20504;-80
2023/03/25 03:17:11;;;;;;;2.17;0.60;;;9.10;84.90;;;;;;5011962;28;20158;-78
2023/03/25 03:20:05;;;;;;;3.85;0.90;;;9.10;84.90;;;;;;5010315;28;20053;-78
2023/03/25 03:22:38;;;;;;;1.88;0.57;;;9.10;85.10;;;;;;5044876;28;20039;-80
2023/03/25 03:25:13;;;;;;;2.60;0.60;;;9.10;85.00;;;;;;5031435;28;20043;-79
2023/03/25 03:27:51;;;;;;;1.63;0.75;;;9.10;85.00;;;;;;5016145;28;20083;-79
2023/03/25 03:30:38;;;;;;;2.35;0.65;;;9.10;85.30;;;;;;5025447;28;20061;-80
2023/03/25 03:33:08;;;;;;;2.90;0.63;;;9.00;85.20;;;;;;5032419;28;20032;-78
2023/03/25 03:35:37;;;;;;;7.23;0.70;;;9.00;85.30;;;;;;5035419;28;20041;-79
2023/03/25 03:38:08;;;;;;;6.10;1.13;;;9.00;85.30;;;;;;5021846;28;20052;-79
2023/03/25 03:40:34;;;;;;;0.95;0.50;;;9.00;85.50;;;;;;5024185;28;20040;-80
2023/03/25 03:43:04;;;;;;;0.85;0.30;;;9.00;85.60;;;;;;5001666;28;20783;-80
2023/03/25 03:45:35;;;;;;;1.67;0.30;;;9.00;85.60;;;;;;4997500;28;20029;-76
2023/03/25 03:48:02;;;;;;;1.60;0.38;;;9.00;85.70;;;;;;5014120;28;20065;-79
2023/03/25 03:50:33;;;;;;;1.02;0.30;;;8.90;85.60;;;;;;5024699;28;20060;-80
2023/03/25 03:53:09;;;;;;;2.50;0.40;;;8.90;85.60;;;;;;5021898;28;20083;-79
2023/03/25 03:55:40;;;;;;;0.82;0.28;;;8.90;85.60;;;;;;5038328;28;20044;-78
2023/03/25 03:58:14;;;;;;;0.75;0.30;;;8.90;85.60;;;;;;5022981;28;20056;-78
2023/03/25 04:00:48;;;;;;;2.03;0.30;;;8.90;85.50;;;;;;5023864;28;20716;-79
2023/03/25 04:03:23;;;;;;;1.58;0.20;;;8.90;85.50;;;;;;5035242;28;20040;-79
2023/03/25 04:05:51;;;;;;;0.75;0.30;;;8.80;85.40;;;;;;5001889;28;20048;-80
2023/03/25 04:08:36;;;;;;;2.65;0.38;;;8.80;85.40;;;;;;5000049;28;20099;-78
2023/03/25 04:11:06;;;;;;;3.25;0.30;;;8.80;85.50;;;;;;5034297;28;20040;-80
2023/03/25 04:13:34;;;;;;;0.30;0.20;;;8.70;85.30;;;;;;5022614;28;20116;-79
2023/03/25 04:16:00;;;;;;;3.50;0.40;;;8.70;85.40;;;;;;5009861;28;20052;-78
2023/03/25 04:18:27;;;;;;;0.20;0.20;;;8.70;85.40;;;;;;5008431;28;20033;-78
2023/03/25 04:20:53;;;;;;;1.45;0.30;;;8.70;85.40;;;;;;5014701;28;20071;-79
2023/03/25 04:23:20;;;;;;;2.22;0.40;;;8.70;85.50;;;;;;5019687;28;20143;-78
2023/03/25 04:25:54;;;;;;;0.75;0.20;;;8.70;85.50;;;;;;5021704;28;20037;-79
2023/03/25 04:28:20;;;;;;;0.35;0.17;;;8.60;85.50;;;;;;5024495;28;20044;-79
2023/03/25 04:30:47;;;;;;;0.90;0.25;;;8.60;85.40;;;;;;5033120;28;20451;-77
2023/03/25 04:33:13;;;;;;;0.55;0.20;;;8.60;85.40;;;;;;5027876;28;20037;-79
2023/03/25 04:35:39;;;;;;;0.57;0.30;;;8.60;85.40;;;;;;5033148;28;20127;-78
2023/03/25 04:38:05;;;;;;;0.75;0.25;;;8.50;85.40;;;;;;5011968;28;20379;-78
2023/03/25 04:40:31;;;;;;;1.77;0.30;;;8.50;85.40;;;;;;5025040;28;20037;-79
2023/03/25 04:42:57;;;;;;;2.00;0.30;;;8.50;85.50;;;;;;5021270;28;20033;-78
2023/03/25 04:45:24;;;;;;;0.45;0.30;;;8.50;85.50;;;;;;5014688;28;20048;-78
2023/03/25 04:47:52;;;;;;;0.63;0.20;;;8.50;85.40;;;;;;5004335;28;20061;-79
2023/03/25 04:50:26;;;;;;;4.97;0.60;;;8.50;85.40;;;;;;5024068;28;20048;-78
2023/03/25 04:52:52;;;;;;;2.90;0.50;;;8.50;85.50;;;;;;5013470;28;20132;-78
2023/03/25 04:55:18;;;;;;;1.25;0.50;;;8.50;85.50;;;;;;5012874;28;20385;-78
2023/03/25 04:57:47;;;;;;;1.77;0.40;;;8.50;85.50;;;;;;4999761;28;20037;-78
2023/03/25 05:00:14;;;;;;;1.02;0.30;;;8.50;85.50;;;;;;4993153;28;20105;-78
2023/03/25 05:02:44;;;;;;;0.82;0.30;;;8.50;85.50;;;;;;5012592;28;20037;-79
2023/03/25 05:05:17;;;;;;;1.43;0.53;;;8.50;85.50;;;;;;5000590;28;20099;-80
2023/03/25 05:07:49;;;;;;;3.10;0.30;;;8.50;85.50;;;;;;4980553;28;20108;-79
2023/03/25 05:10:19;;;;;;;4.00;0.60;;;8.50;85.50;;;;;;4997857;28;20111;-79
2023/03/25 05:12:45;;;;;;;0.80;0.40;;;8.50;85.50;;;;;;4994618;28;20579;-77
2023/03/25 05:15:11;;;;;;;3.08;0.60;;;8.50;85.50;;;;;;4992230;28;20049;-80
2023/03/25 05:17:36;;;;;;;2.35;0.38;;;8.40;85.40;;;;;;4985554;28;20133;-78
2023/03/25 05:20:05;;;;;;;2.05;0.55;;;8.50;85.50;;;;;;5011397;28;20070;-79
2023/03/25 05:22:31;;;;;;;1.52;0.43;;;8.50;85.50;;;;;;5008228;28;20040;-78
2023/03/25 05:24:57;;;;;;;2.55;0.50;;;8.40;85.40;;;;;;4996182;28;20040;-79
2023/03/25 05:27:22;;;;;;;2.38;0.70;;;8.50;85.40;;;;;;4998020;28;20124;-79
2023/03/25 05:29:48;;;;;;;1.92;0.55;;;8.40;85.30;;;;;;4995940;28;20096;-79
2023/03/25 05:32:16;;;;;;;1.20;0.50;;;8.40;85.30;;;;;;5010116;28;20592;-77
2023/03/25 05:34:45;;;;;;;2.47;0.73;;;8.40;85.30;;;;;;5013517;28;20033;-78
2023/03/25 05:37:11;;;;;;;0.88;0.50;;;8.40;85.20;;;;;;5019520;28;20179;-79
2023/03/25 05:39:37;;;;;;;1.48;0.50;;;8.40;85.20;;;;;;4979768;28;20030;-79
2023/03/25 05:42:03;;;;;;;1.70;0.35;;;8.40;85.20;;;;;;4992595;28;20049;-78
2023/03/25 05:44:28;;;;;;;2.38;0.47;;;8.40;85.20;;;;;;5018589;28;20072;-79
2023/03/25 05:46:54;;;;;;;0.60;0.40;;;8.40;85.10;;;;;;5016264;28;20049;-78
2023/03/25 05:49:20;;;;;;;2.50;0.50;;;8.40;85.00;;;;;;5015000;28;20036;-78
2023/03/25 05:51:48;;;;;;;0.75;0.40;;;8.40;85.00;;;;;;4996944;28;20055;-78
2023/03/25 05:54:14;;;;;;;1.40;0.63;;;8.40;85.00;;;;;;5013584;28;20041;-79
2023/03/25 05:56:42;;;;;;;0.90;0.50;;;8.40;85.00;;;;;;5004484;28;20045;-79
2023/03/25 05:59:09;;;;;;;2.50;0.40;;;8.40;84.90;;;;;;5013889;28;20041;-79
2023/03/25 06:01:36;;;;;;;3.25;0.60;;;8.40;84.90;;;;;;4984529;28;20034;-77
2023/03/25 06:04:02;;;;;;;1.42;0.50;;;8.40;84.90;;;;;;5008348;28;20057;-79
2023/03/25 06:06:28;;;;;;;3.53;0.70;;;8.40;85.00;;;;;;5004555;28;20132;-78
2023/03/25 06:08:54;;;;;;;1.25;0.40;;;8.40;84.90;;;;;;5016920;28;20052;-78
2023/03/25 06:11:20;;;;;;;3.15;0.75;;;8.40;85.00;;;;;;5011598;28;20064;-79
2023/03/25 06:13:49;;;;;;;1.75;0.38;;;8.40;84.90;;;;;;4982121;28;20761;-78
2023/03/25 06:16:21;;;;;;;1.67;1.10;;;8.40;84.80;;;;;;4996134;28;20045;-79
2023/03/25 06:18:55;;;;;;;2.17;0.52;;;8.50;84.90;;;;;;5012506;28;20037;-77
2023/03/25 06:21:22;;;;;;;1.88;0.60;;;8.50;84.90;;;;;;5017353;28;20095;-78
2023/03/25 06:23:48;;;;;;;1.85;0.60;;;8.50;84.90;;;;;;5002488;28;20037;-79
2023/03/25 06:26:14;;;;;;;2.30;0.50;;;8.50;84.80;;;;;;4979543;28;20033;-78
2023/03/25 06:28:40;;;;;;;2.17;0.70;;;8.50;84.80;;;;;;4993908;28;20056;-78
2023/03/25 06:31:11;;;;;;;1.77;0.50;;;8.50;84.80;;;;;;5000672;28;20555;-78
2023/03/25 06:33:37;;;;;;;2.40;0.70;;;8.50;84.80;;;;;;5029077;28;20704;-79
2023/03/25 06:36:03;;;;;;;1.48;0.80;;;8.50;84.80;;;;;;5030901;28;20549;-79
2023/03/25 06:38:28;;;;;;;2.10;1.10;;;8.60;84.90;;;;;;5030810;28;20153;-79
2023/03/25 06:40:55;;;;;;;4.00;1.50;;;8.60;85.00;;;;;;5010502;28;20056;-79
2023/03/25 06:43:21;;;;;;;12.40;6.15;;;8.70;85.00;;;;;;5009876;28;20602;-78
2023/03/25 06:45:50;;;;;;;2.72;1.40;;;8.70;85.00;;;;;;5013831;28;20148;-78
2023/03/25 06:48:15;;;;;;;3.08;0.73;;;8.70;85.00;;;;;;5013220;28;20041;-80
2023/03/25 06:50:41;;;;;;;2.30;1.02;;;8.70;85.00;;;;;;5032111;28;20150;-79
2023/03/25 06:53:06;;;;;;;3.05;1.08;;;8.80;85.10;;;;;;4996348;28;20038;-78
2023/03/25 06:55:32;;;;;;;1.33;0.50;;;8.80;85.10;;;;;;5015010;28;20056;-78
2023/03/25 06:57:57;;;;;;;2.08;1.00;;;8.80;85.20;;;;;;5025335;28;20033;-80
2023/03/25 07:00:25;;;;;;;3.88;0.82;;;8.80;85.20;;;;;;5027755;28;20037;-78
2023/03/25 07:02:51;;;;;;;3.17;0.73;;;8.80;85.30;;;;;;5029262;28;20048;-79
2023/03/25 07:05:17;;;;;;;2.85;1.33;;;8.70;85.40;;;;;;5011785;28;20034;-78
2023/03/25 07:07:42;;;;;;;3.65;0.80;;;8.80;85.60;;;;;;5012540;28;20033;-79
2023/03/25 07:10:10;;;;;;;1.55;0.60;;;8.80;85.70;;;;;;5027865;28;20579;-78
2023/03/25 07:12:36;;;;;;;4.70;0.68;;;8.80;85.70;;;;;;5012971;28;20044;-79
2023/03/25 07:15:02;;;;;;;3.10;1.30;;;8.80;85.90;;;;;;5029944;28;20060;-79
2023/03/25 07:17:27;;;;;;;2.05;0.52;;;8.90;86.00;;;;;;5011387;28;20125;-79
2023/03/25 07:19:53;;;;;;;1.20;0.70;;;8.90;86.80;;;;;;5013650;28;20067;-77
2023/03/25 07:22:18;;;;;;;3.83;0.73;;;8.90;85.90;;;;;;5035718;28;20040;-80
2023/03/25 07:24:44;;;;;;;2.10;0.70;;;9.00;85.90;;;;;;5009712;28;20053;-79
2023/03/25 07:27:13;;;;;;;1.25;0.75;;;8.90;85.80;;;;;;5020954;28;20041;-79
2023/03/25 07:29:38;;;;;;;1.90;0.50;;;9.00;86.00;;;;;;5021148;28;20119;-79
2023/03/25 07:32:04;;;;;;;0.80;0.55;;;9.10;86.00;;;;;;5040395;28;20160;-79
2023/03/25 07:34:30;;;;;;;2.55;0.80;;;9.10;85.90;;;;;;5017342;28;20140;-79
2023/03/25 07:36:55;;;;;;;3.38;0.73;;;9.10;85.90;;;;;;5036394;28;20060;-78
2023/03/25 07:39:23;;;;;;;2.67;0.60;;;9.10;85.90;;;;;;5014728;28;20037;-79
2023/03/25 07:41:50;;;;;;;4.20;0.98;;;9.10;85.90;;;;;;5033589;28;20045;-78
2023/03/25 07:44:15;;;;;;;3.75;1.00;;;9.20;85.90;;;;;;5017136;28;20049;-78
2023/03/25 07:46:41;;;;;;;5.32;2.33;;;9.20;85.80;;;;;;5017910;28;20083;-78
2023/03/25 07:49:06;;;;;;;3.70;1.70;;;9.30;85.70;;;;;;5019723;28;20041;-78
2023/03/25 07:51:33;;;;;;;5.10;2.63;;;9.30;85.80;;;;;;5014736;28;20061;-79
2023/03/25 07:53:59;;;;;;;6.95;1.67;;;9.40;85.90;;;;;;5011689;28;20072;-78
2023/03/25 07:56:24;;;;;;;5.97;1.65;;;9.50;85.90;;;;;;5017024;28;20508;-79
2023/03/25 07:58:50;;;;;;;2.20;0.80;;;9.60;85.90;;;;;;5014713;28;20164;-79
2023/03/25 08:01:16;;;;;;;2.92;0.80;;;9.80;85.90;;;;;;5017755;28;20033;-78
2023/03/25 08:03:41;;;;;;;5.78;1.65;;;9.90;85.60;;;;;;5014685;28;20042;-78
2023/03/25 08:06:07;;;;;;;6.80;1.02;;;10.00;85.60;;;;;;4988960;28;20068;-76
2023/03/25 08:08:33;;;;;;;1.40;0.90;;;10.20;85.50;;;;;;4994456;28;20034;-77
2023/03/25 08:10:58;;;;;;;3.42;0.80;;;10.40;85.40;;;;;;4992777;28;20125;-75
2023/03/25 08:13:24;;;;;;;5.75;0.82;;;10.50;85.10;;;;;;5016616;28;20048;-77
2023/03/25 08:15:50;;;;;;;3.65;0.90;;;10.70;84.90;;;;;;5014391;28;20245;-74
2023/03/25 08:18:16;;;;;;;3.47;1.23;;;10.80;84.60;;;;;;4993405;28;20065;-78
2023/03/25 08:20:41;;;;;;;2.65;1.02;;;10.90;84.30;;;;;;5012431;28;20034;-78
2023/03/25 08:23:09;;;;;;;2.63;0.70;;;10.90;83.90;;;;;;4993327;28;20033;-79
2023/03/25 08:25:35;;;;;;;4.70;1.05;;;10.90;83.70;;;;;;5008586;28;20428;-78
2023/03/25 08:28:01;;;;;;;3.90;1.20;;;11.00;83.40;;;;;;5011172;28;20061;-78
2023/03/25 08:30:27;;;;;;;5.18;0.82;;;11.00;83.20;;;;;;5017911;28;20060;-79
2023/03/25 08:32:55;;;;;;;4.88;1.33;;;11.00;82.90;;;;;;5010870;28;20527;-75
2023/03/25 08:35:22;;;;;;;4.80;0.90;;;11.00;82.90;;;;;;5013080;28;20183;-76
2023/03/25 08:37:48;;;;;;;3.22;1.05;;;11.10;82.70;;;;;;5016357;28;20062;-76
2023/03/25 08:40:15;;;;;;;4.35;0.73;;;11.10;82.40;;;;;;5000916;28;20072;-76
2023/03/25 08:42:41;;;;;;;5.97;0.80;;;11.10;82.30;;;;;;5008379;28;20025;-76
2023/03/25 08:45:07;;;;;;;4.95;0.70;;;11.20;82.20;;;;;;4980808;28;20084;-75
2023/03/25 08:47:33;;;;;;;5.30;1.75;;;11.20;81.90;;;;;;4978256;28;20168;-76
2023/03/25 08:49:58;;;;;;;4.72;1.33;;;11.20;81.50;;;;;;4992769;28;20590;-74
2023/03/25 08:52:24;;;;;;;5.97;0.90;;;11.20;81.60;;;;;;4995565;28;20034;-74
2023/03/25 08:54:49;;;;;;;9.25;1.08;;;11.30;81.60;;;;;;4999641;28;20045;-75
2023/03/25 08:57:15;;;;;;;4.72;0.95;;;11.50;81.40;;;;;;5007263;28;20038;-79
2023/03/25 08:59:41;;;;;;;5.30;1.48;;;11.60;81.20;;;;;;4996856;28;20934;-79
2023/03/25 09:02:08;;;;;;;6.05;1.10;;;11.80;81.80;;;;;;5012462;28;20878;-79
2023/03/25 09:04:33;;;;;;;4.25;0.82;;;11.90;80.60;;;;;;5010646;28;20037;-78
2023/03/25 09:06:59;;;;;;;2.65;1.27;;;12.00;80.00;;;;;;4993896;28;20030;-79
2023/03/25 09:09:24;;;;;;;3.67;1.25;;;12.10;79.60;;;;;;5013470;28;20057;-79
2023/03/25 09:11:50;;;;;;;9.75;2.13;;;12.20;79.50;;;;;;5012088;28;20037;-78
2023/03/25 09:14:15;;;;;;;4.25;0.90;;;12.20;79.10;;;;;;5012747;28;20037;-79
2023/03/25 09:16:41;;;;;;;5.75;1.00;;;12.20;78.80;;;;;;5012145;28;20041;-77
2023/03/25 09:19:07;;;;;;;6.35;1.20;;;12.20;78.50;;;;;;5012465;28;20033;-78
2023/03/25 09:21:32;;;;;;;5.15;1.30;;;12.20;78.10;;;;;;5006793;28;20064;-78
2023/03/25 09:23:58;;;;;;;5.97;1.10;;;12.10;77.90;;;;;;5012179;28;20033;-79
2023/03/25 09:26:25;;;;;;;2.60;1.23;;;12.10;77.80;;;;;;5010080;28;20042;-78
2023/03/25 09:28:50;;;;;;;6.05;1.50;;;12.10;77.60;;;;;;5016130;28;20037;-78
2023/03/25 09:31:16;;;;;;;4.97;1.45;;;12.10;77.30;;;;;;5011926;28;20048;-78
2023/03/25 09:33:41;;;;;;;5.07;1.33;;;12.10;77.30;;;;;;5009661;28;20041;-78
2023/03/25 09:36:07;;;;;;;10.93;2.53;;;12.20;77.50;;;;;;5010780;28;20050;-78
2023/03/25 09:38:32;;;;;;;7.72;1.35;;;12.20;77.30;;;;;;5043587;28;20052;-77
2023/03/25 09:40:59;;;;;;;4.28;1.40;;;12.30;77.30;;;;;;5050187;28;20036;-78
2023/03/25 09:43:35;;;;;;;4.60;1.45;;;12.50;77.10;;;;;;5013143;28;20229;-78
2023/03/25 09:46:01;;;;;;;9.77;1.60;;;12.50;76.60;;;;;;5050033;28;20516;-77
2023/03/25 09:48:36;;;;;;;5.22;1.30;;;12.50;76.40;;;;;;5033704;28;20029;-78
2023/03/25 09:51:04;;;;;;;5.30;1.15;;;12.50;76.50;;;;;;5035879;28;20134;-78
2023/03/25 09:54:00;;;;;;;4.50;1.40;;;12.60;76.80;;;;;;5035145;28;20048;-77
2023/03/25 09:56:27;;;;;;;5.95;1.15;;;12.70;76.90;;;;;;5023588;28;20049;-78
2023/03/25 09:59:32;;;;;;;3.20;1.02;;;12.90;77.00;;;;;;5021159;28;20028;-78
2023/03/25 10:02:17;;;;;;;2.42;0.70;;;13.00;76.10;;;;;;4992361;28;20048;-77
2023/03/25 10:04:45;;;;;;;3.35;1.20;;;13.10;76.40;;;;;;5023441;28;20040;-78
2023/03/25 10:07:34;;;;;;;5.22;0.85;;;13.30;76.30;;;;;;4994016;28;20041;-77
2023/03/25 10:10:03;;;;;;;5.25;1.50;;;13.40;75.30;;;;;;5004999;28;20037;-79
2023/03/25 10:12:46;;;;;;;3.75;1.60;;;13.50;76.10;;;;;;5022578;28;20061;-78
2023/03/25 10:15:33;;;;;;;5.00;1.08;;;13.50;74.50;;;;;;5035168;28;20044;-79
2023/03/25 10:18:22;;;;;;;3.45;1.15;;;13.40;74.40;;;;;;5023713;28;20039;-78
2023/03/25 10:20:48;;;;;;;6.03;1.98;;;13.30;74.60;;;;;;5004465;28;20039;-78
2023/03/25 10:23:32;;;;;;;4.03;1.50;;;13.30;74.80;;;;;;5033984;28;20570;-76
2023/03/25 10:26:20;;;;;;;5.32;1.42;;;13.30;74.80;;;;;;5048860;28;20131;-78
2023/03/25 10:28:51;;;;;;;5.28;1.27;;;13.30;74.50;;;;;;5035012;28;20531;-78
2023/03/25 10:31:19;;;;;;;3.42;1.08;;;13.30;74.50;;;;;;4996296;28;20097;-77
2023/03/25 10:33:54;;;;;;;6.22;1.52;;;13.30;74.40;;;;;;5033863;28;20037;-79
2023/03/25 10:36:25;;;;;;;2.05;0.90;;;13.30;74.30;;;;;;4999854;28;20069;-78
2023/03/25 10:38:53;;;;;;;3.47;1.15;;;13.30;74.40;;;;;;5029236;28;20052;-74
2023/03/25 10:41:30;;;;;;;4.70;0.93;;;13.30;74.30;;;;;;5007404;28;20051;-78
2023/03/25 10:43:56;;;;;;;3.42;0.90;;;13.40;73.80;;;;;;5011593;28;20110;-77
2023/03/25 10:46:42;;;;;;;5.57;0.65;;;13.50;74.10;;;;;;5574687;23;20030;-78
2023/03/25 10:49:08;;;;;;;1.52;0.50;;;13.60;73.50;;;;;;5959784;23;20018;-79
2023/03/25 10:51:34;;;;;;;2.60;0.65;;;13.60;73.50;;;;;;5958010;23;20018;-79
2023/03/25 10:54:00;;;;;;;1.25;0.50;;;13.70;73.30;;;;;;5960812;23;20014;-78
2023/03/25 10:56:31;;;;;;;4.40;1.05;;;13.70;73.10;;;;;;5983668;23;20030;-79
2023/03/25 10:58:57;;;;;;;3.85;1.00;;;13.70;72.90;;;;;;5961311;23;20085;-78
2023/03/25 11:01:37;;;;;;;2.20;0.75;;;13.60;73.00;;;;;;5957497;23;20019;-79
2023/03/25 11:04:03;;;;;;;5.65;1.80;;;13.50;72.50;;;;;;5937936;23;20057;-79
2023/03/25 11:06:30;;;;;;;2.17;0.70;;;13.50;73.10;;;;;;5959146;23;20026;-78
2023/03/25 11:09:14;;;;;;;2.40;0.70;;;13.50;73.20;;;;;;5981309;23;20030;-78
2023/03/25 11:11:40;;;;;;;4.60;0.70;;;13.60;72.80;;;;;;5960759;23;20030;-78
2023/03/25 11:14:05;;;;;;;4.05;0.85;;;13.70;73.10;;;;;;5961782;23;20424;-79
2023/03/25 11:16:36;;;;;;;1.35;0.75;;;13.70;72.90;;;;;;5962411;23;20026;-79
2023/03/25 11:19:02;;;;;;;1.40;0.70;;;13.80;72.60;;;;;;5962641;23;20108;-79
2023/03/25 11:21:32;;;;;;;1.73;1.00;;;13.80;72.60;;;;;;5961431;23;20333;-78
2023/03/25 11:23:57;;;;;;;1.73;0.90;;;13.80;72.40;;;;;;5985499;23;20481;-79
2023/03/25 11:26:24;;;;;;;4.18;1.00;;;13.80;72.40;;;;;;5962520;23;20041;-79
2023/03/25 11:28:53;;;;;;;3.83;0.60;;;13.70;72.30;;;;;;5988663;23;20041;-78
2023/03/25 11:31:20;;;;;;;2.50;0.47;;;13.50;72.10;;;;;;5939862;23;20026;-80
2023/03/25 11:33:59;;;;;;;1.48;0.50;;;13.30;72.10;;;;;;5988130;23;20437;-77
2023/03/25 11:36:27;;;;;;;1.80;0.52;;;13.10;72.20;;;;;;5939237;23;20030;-79
2023/03/25 11:38:58;;;;;;;1.95;0.57;;;13.00;72.40;;;;;;5960035;23;20026;-79
2023/03/25 11:41:27;;;;;;;0.50;0.22;;;13.00;72.60;;;;;;5957788;23;20632;-79
2023/03/25 11:43:52;;;;;;;3.25;0.50;;;13.00;72.80;;;;;;5982396;23;20030;-78
2023/03/25 11:46:19;;;;;;;0.80;0.25;;;13.10;73.00;;;;;;5985631;23;20030;-78
2023/03/25 11:48:45;;;;;;;1.08;0.40;;;13.10;73.90;;;;;;5963608;23;20057;-79
2023/03/25 11:51:26;;;;;;;0.60;0.30;;;13.20;73.30;;;;;;5962121;23;20059;-78
2023/03/25 11:53:59;;;;;;;0.82;0.30;;;13.30;73.20;;;;;;5935885;23;20057;-79
2023/03/25 11:56:30;;;;;;;1.60;0.30;;;13.30;73.20;;;;;;5983968;23;20030;-78
2023/03/25 11:58:57;;;;;;;0.73;0.60;;;13.30;73.40;;;;;;5962507;23;20030;-79
2023/03/25 12:01:35;;;;;;;0.80;0.30;;;13.40;73.60;;;;;;5983833;23;20516;-79
2023/03/25 12:04:21;;;;;;;1.50;0.50;;;13.40;73.70;;;;;;5962531;23;20173;-78
2023/03/25 12:07:00;;;;;;;1.10;0.40;;;13.60;73.90;;;;;;5962688;23;20030;-79
2023/03/25 12:09:27;;;;;;;1.95;0.77;;;13.70;73.90;;;;;;5962378;23;20033;-79
2023/03/25 12:12:04;;;;;;;2.03;0.30;;;13.90;73.90;;;;;;5959704;23;20029;-79
2023/03/25 12:14:35;;;;;;;1.58;0.47;;;14.00;73.80;;;;;;5961090;23;20022;-78
2023/03/25 12:17:25;;;;;;;1.13;0.38;;;14.20;73.80;;;;;;5982572;23;20034;-79
2023/03/25 12:20:13;;;;;;;0.70;0.30;;;14.30;73.00;;;;;;5961434;23;20627;-78
2023/03/25 12:22:57;;;;;;;0.70;0.30;;;14.40;72.70;;;;;;5952133;23;20045;-79
2023/03/25 12:25:41;;;;;;;1.17;0.50;;;14.40;72.40;;;;;;5949727;23;20018;-79
2023/03/25 12:28:14;;;;;;;0.60;0.38;;;14.40;72.40;;;;;;5969132;23;20077;-80
2023/03/25 12:30:58;;;;;;;4.32;0.43;;;14.30;72.40;;;;;;5959639;23;20022;-79
2023/03/25 12:33:45;;;;;;;1.77;0.70;;;14.30;72.20;;;;;;5963279;23;20101;-79
2023/03/25 12:36:32;;;;;;;1.30;0.88;;;14.10;72.10;;;;;;5961550;23;20092;-79
2023/03/25 12:39:12;;;;;;;3.33;0.70;;;14.10;72.50;;;;;;5959536;23;20034;-79
2023/03/25 12:41:49;;;;;;;2.25;0.68;;;14.00;72.50;;;;;;5956993;23;20515;-78
2023/03/25 12:44:22;;;;;;;1.95;0.40;;;14.00;72.80;;;;;;5961955;23;20039;-79
2023/03/25 12:46:53;;;;;;;1.45;0.40;;;13.90;72.70;;;;;;5980902;23;20037;-79
2023/03/25 12:49:33;;;;;;;3.70;0.57;;;13.90;72.50;;;;;;5958658;23;20022;-80
2023/03/25 12:52:10;;;;;;;1.13;0.55;;;13.90;72.50;;;;;;5955291;23;20033;-79
2023/03/25 12:54:58;;;;;;;1.67;0.68;;;13.80;72.60;;;;;;5951181;23;20083;-79
2023/03/25 12:57:37;;;;;;;0.85;0.30;;;13.80;72.30;;;;;;5959393;23;20025;-79
2023/03/25 13:00:56;;;;;;;1.30;0.52;;;13.80;72.40;;;;;;5957295;23;20128;-79
2023/03/25 13:03:50;;;;;;;1.83;0.60;;;13.90;72.50;;;;;;5952674;23;20018;-80
2023/03/25 13:06:34;;;;;;;1.60;0.50;;;14.00;72.40;;;;;;5958917;23;20049;-79
2023/03/25 13:09:19;;;;;;;0.85;0.30;;;14.10;72.50;;;;;;5959891;23;20030;-78